Time;durP1;ratioP1;P1;durP2;ratioP2;P2;SDS_P1;SDS_P2;PMS_P1;PMS_P2;Temp;Humidity;BMP_temperature;BMP_pressure;BME280_temperature;BME280_humidity;BME280_pressure;Samples;Min_cycle;Max_cycle;Signal;HPM_P1;HPM_P2
2022/01/20 00:00:02;;;;;;;9.82;5.30;;;4.40;99.90;;;;;;5067220;28;20116;-60
2022/01/20 00:03:24;;;;;;;13.68;6.30;;;4.30;99.90;;;;;;5063206;28;20080;-60
2022/01/20 00:07:21;;;;;;;8.77;4.95;;;4.30;99.90;;;;;;5062392;28;20491;-60
2022/01/20 00:27:07;;;;;;;7.20;2.90;;;4.10;99.90;;;;;;5110372;28;20035;-60
2022/01/20 00:30:36;;;;;;;8.18;3.30;;;4.00;99.90;;;;;;5104384;28;20031;-60
2022/01/20 00:34:08;;;;;;;7.65;3.08;;;4.00;99.90;;;;;;5104643;28;20023;-60
2022/01/20 00:37:18;;;;;;;7.35;2.30;;;3.90;99.90;;;;;;5099406;28;20035;-60
2022/01/20 00:40:43;;;;;;;9.15;2.15;;;3.90;99.90;;;;;;5107358;28;20035;-60
2022/01/20 00:44:08;;;;;;;11.82;2.45;;;3.90;99.90;;;;;;5095529;28;20032;-61
2022/01/20 00:47:34;;;;;;;16.17;2.85;;;3.80;99.90;;;;;;5104367;28;20078;-60
2022/01/20 00:50:59;;;;;;;20.98;3.38;;;3.90;99.90;;;;;;5104272;28;20035;-60
2022/01/20 00:54:24;;;;;;;16.30;2.85;;;3.90;99.90;;;;;;5102225;28;20028;-60
2022/01/20 00:57:50;;;;;;;14.82;2.33;;;3.90;99.90;;;;;;5103931;28;20394;-60
2022/01/20 01:01:15;;;;;;;7.38;1.80;;;3.80;99.90;;;;;;5104079;28;20147;-60
2022/01/20 01:04:40;;;;;;;13.05;1.95;;;3.80;99.90;;;;;;5102092;28;20505;-60
2022/01/20 01:08:06;;;;;;;13.18;1.90;;;3.80;99.90;;;;;;5103721;28;20040;-60
2022/01/20 01:11:31;;;;;;;9.75;2.47;;;3.90;99.90;;;;;;5106538;28;20074;-60
2022/01/20 01:14:57;;;;;;;14.50;2.72;;;3.90;99.90;;;;;;5105734;28;20372;-60
2022/01/20 01:22:01;;;;;;;12.52;2.67;;;4.00;99.90;;;;;;5109141;28;20043;-60
2022/01/20 01:25:11;;;;;;;10.30;2.30;;;4.00;99.90;;;;;;5099921;28;20065;-60
2022/01/20 01:28:36;;;;;;;9.40;2.30;;;4.10;99.90;;;;;;5104172;28;20407;-60
2022/01/20 01:32:02;;;;;;;10.80;2.38;;;4.10;99.90;;;;;;5109056;28;20032;-60
2022/01/20 01:35:27;;;;;;;6.43;1.90;;;4.10;99.90;;;;;;5104499;28;20494;-60
2022/01/20 01:38:52;;;;;;;10.32;2.00;;;4.10;99.90;;;;;;5101335;28;20479;-61
2022/01/20 01:42:24;;;;;;;12.77;2.30;;;4.00;99.90;;;;;;5108794;28;20047;-60
2022/01/20 01:45:52;;;;;;;13.55;2.28;;;3.90;99.90;;;;;;5105587;28;20032;-61
2022/01/20 01:49:19;;;;;;;15.65;3.38;;;3.70;99.90;;;;;;5103864;28;20407;-60
2022/01/20 01:52:43;;;;;;;9.32;1.67;;;3.40;99.90;;;;;;5088430;28;20139;-60
2022/01/20 01:56:08;;;;;;;11.07;1.92;;;3.20;99.90;;;;;;5105881;28;20415;-60
2022/01/20 01:59:34;;;;;;;9.20;2.30;;;3.10;99.90;;;;;;5101235;28;20384;-60
2022/01/20 02:03:00;;;;;;;17.05;2.45;;;3.00;99.90;;;;;;5103252;28;20067;-60
2022/01/20 02:17:49;;;;;;;17.08;2.33;;;2.80;99.90;;;;;;5101580;28;20422;-59
2022/01/20 02:19:58;;;;;;;16.88;2.97;;;2.40;99.90;;;;;;5103167;28;20271;-59
2022/01/20 02:23:25;;;;;;;11.93;2.08;;;2.20;99.90;;;;;;5088513;28;20044;-60
2022/01/20 02:26:48;;;;;;;12.23;2.28;;;2.10;99.90;;;;;;5102082;28;20024;-60
2022/01/20 02:30:14;;;;;;;17.42;2.42;;;2.10;99.90;;;;;;5100978;28;20593;-59
2022/01/20 02:33:39;;;;;;;9.73;1.98;;;2.00;99.90;;;;;;5102606;28;20042;-60
2022/01/20 02:37:06;;;;;;;7.55;2.08;;;1.80;99.90;;;;;;5107876;28;20040;-60
2022/01/20 02:47:14;;;;;;;4.55;1.17;;;1.50;99.90;;;;;;5088875;28;20054;-60
2022/01/20 02:50:39;;;;;;;12.73;1.70;;;1.50;99.90;;;;;;5108252;28;20028;-59
2022/01/20 02:54:04;;;;;;;10.32;2.10;;;1.40;99.90;;;;;;5111474;28;20376;-60
2022/01/20 02:57:30;;;;;;;11.55;1.92;;;1.30;99.90;;;;;;5110115;28;20039;-60
2022/01/20 03:00:55;;;;;;;11.65;1.52;;;1.30;99.90;;;;;;5104800;28;20260;-60
2022/01/20 03:04:24;;;;;;;7.40;1.77;;;1.30;99.90;;;;;;5090120;28;20063;-60
2022/01/20 03:07:06;;;;;;;15.50;2.35;;;1.30;99.90;;;;;;5105028;28;20034;-60
2022/01/20 03:09:32;;;;;;;16.45;2.10;;;1.30;99.90;;;;;;5110033;28;20028;-60
2022/01/20 03:12:00;;;;;;;11.82;1.58;;;1.40;99.90;;;;;;5111715;28;20035;-60
2022/01/20 03:14:25;;;;;;;14.10;2.08;;;1.40;99.90;;;;;;5109935;28;20558;-60
2022/01/20 03:16:51;;;;;;;8.93;1.90;;;1.40;99.90;;;;;;5111920;28;20095;-60
2022/01/20 03:19:16;;;;;;;9.60;1.98;;;1.30;99.90;;;;;;5109361;28;20044;-60
2022/01/20 03:21:43;;;;;;;11.65;1.80;;;1.30;99.90;;;;;;5111478;28;20031;-60
2022/01/20 03:24:10;;;;;;;15.48;2.33;;;1.30;99.90;;;;;;5109650;28;20020;-60
2022/01/20 03:26:36;;;;;;;12.70;2.65;;;1.30;99.90;;;;;;5111642;28;20632;-60
2022/01/20 03:29:04;;;;;;;14.05;2.63;;;1.40;99.90;;;;;;5109591;28;20061;-60
2022/01/20 03:31:32;;;;;;;11.15;2.70;;;1.50;99.90;;;;;;5111691;28;20080;-60
2022/01/20 03:33:59;;;;;;;9.98;2.35;;;1.70;99.90;;;;;;5109194;28;20032;-59
2022/01/20 03:36:24;;;;;;;10.05;1.80;;;1.90;99.90;;;;;;5111423;28;20097;-60
2022/01/20 03:38:50;;;;;;;7.53;1.60;;;2.00;99.90;;;;;;5109384;28;20488;-59
2022/01/20 03:41:16;;;;;;;17.98;2.63;;;2.20;99.90;;;;;;5111238;28;20031;-60
2022/01/20 03:43:42;;;;;;;18.42;2.70;;;2.30;99.90;;;;;;5102153;28;20024;-59
2022/01/20 03:46:12;;;;;;;12.05;2.08;;;2.40;99.90;;;;;;5111588;28;20498;-60
2022/01/20 03:48:49;;;;;;;11.23;2.30;;;2.50;99.90;;;;;;5091057;28;20040;-59
2022/01/20 03:51:15;;;;;;;16.83;2.65;;;2.60;99.90;;;;;;5090818;28;20028;-60
2022/01/20 03:53:41;;;;;;;10.85;2.38;;;2.70;99.90;;;;;;5108434;28;20483;-58
2022/01/20 03:56:07;;;;;;;12.40;2.45;;;2.70;99.90;;;;;;5111306;28;20031;-60
2022/01/20 03:58:33;;;;;;;7.55;2.85;;;2.70;99.90;;;;;;5110040;28;20019;-60
2022/01/20 04:00:58;;;;;;;13.35;2.38;;;2.70;99.90;;;;;;5108909;28;20412;-60
2022/01/20 04:03:24;;;;;;;11.43;1.63;;;2.60;99.90;;;;;;5111043;28;20038;-60
2022/01/20 04:05:56;;;;;;;8.05;2.00;;;2.50;99.90;;;;;;5090821;28;20035;-60
2022/01/20 04:08:23;;;;;;;6.15;1.00;;;2.30;99.90;;;;;;5090436;28;20404;-60
2022/01/20 04:10:49;;;;;;;5.70;1.23;;;2.20;99.90;;;;;;5108723;28;20596;-59
2022/01/20 04:13:15;;;;;;;12.63;1.48;;;2.00;99.90;;;;;;5110614;28;20118;-60
2022/01/20 04:15:41;;;;;;;8.13;1.17;;;1.90;99.90;;;;;;5091935;28;20162;-59
2022/01/20 04:18:08;;;;;;;7.95;1.23;;;1.90;99.90;;;;;;5109981;28;20110;-60
2022/01/20 04:20:34;;;;;;;8.02;1.73;;;1.80;99.90;;;;;;5108483;28;20058;-60
2022/01/20 04:22:59;;;;;;;6.60;1.20;;;1.80;99.90;;;;;;5110225;28;20036;-60
2022/01/20 04:25:25;;;;;;;6.57;1.35;;;1.70;99.90;;;;;;5094060;28;20354;-60
2022/01/20 04:27:50;;;;;;;1.90;0.60;;;1.70;99.90;;;;;;5109754;28;20055;-60
2022/01/20 04:30:16;;;;;;;6.55;1.20;;;1.40;99.90;;;;;;5090145;28;20129;-60
2022/01/20 04:32:41;;;;;;;11.43;1.30;;;1.20;99.90;;;;;;5110059;28;20027;-60
2022/01/20 04:35:07;;;;;;;6.20;1.38;;;0.90;99.90;;;;;;5096381;28;20032;-60
2022/01/20 04:37:33;;;;;;;8.10;1.10;;;0.70;99.90;;;;;;5109512;28;20716;-60
2022/01/20 04:40:00;;;;;;;6.57;1.30;;;0.60;99.90;;;;;;5103774;28;20107;-59
2022/01/20 04:42:28;;;;;;;10.63;3.28;;;0.40;99.90;;;;;;5104553;28;20506;-60
2022/01/20 04:45:02;;;;;;;7.70;1.05;;;0.40;99.90;;;;;;5107448;28;20110;-60
2022/01/20 04:58:05;;;;;;;3.50;0.80;;;0.20;99.90;;;;;;5103386;28;20104;-59
2022/01/20 05:00:31;;;;;;;2.88;0.82;;;0.20;99.90;;;;;;5108836;28;20483;-60
2022/01/20 05:02:56;;;;;;;5.90;1.20;;;0.20;99.90;;;;;;5108479;28;20058;-60
2022/01/20 05:05:22;;;;;;;3.28;1.55;;;0.20;99.90;;;;;;5106566;28;20024;-61
2022/01/20 05:07:48;;;;;;;1.75;0.60;;;0.30;99.90;;;;;;5108403;28;20027;-60
2022/01/20 05:10:14;;;;;;;4.38;0.63;;;0.30;99.90;;;;;;5088148;28;20020;-60
2022/01/20 05:15:18;;;;;;;8.63;1.45;;;0.30;99.90;;;;;;5105621;28;20099;-60
2022/01/20 05:17:44;;;;;;;9.13;1.40;;;0.30;99.90;;;;;;5108086;28;20032;-62
2022/01/20 05:20:10;;;;;;;9.25;3.75;;;0.30;99.90;;;;;;5088173;28;20047;-59
2022/01/20 05:22:35;;;;;;;10.07;1.63;;;0.30;99.90;;;;;;5107908;28;20125;-61
2022/01/20 05:25:02;;;;;;;11.13;1.80;;;0.30;99.90;;;;;;5106296;28;20096;-61
2022/01/20 05:27:27;;;;;;;9.27;1.88;;;0.30;99.90;;;;;;5108110;28;20099;-62
2022/01/20 05:29:55;;;;;;;11.00;1.73;;;0.30;99.90;;;;;;5090405;28;20029;-60
2022/01/20 05:32:21;;;;;;;13.25;1.45;;;0.30;99.90;;;;;;5107610;28;20072;-61
2022/01/20 05:34:46;;;;;;;9.40;1.73;;;0.30;99.90;;;;;;5106275;28;20035;-61
2022/01/20 05:37:12;;;;;;;9.13;1.50;;;0.20;99.90;;;;;;5106050;28;20052;-62
2022/01/20 05:39:37;;;;;;;13.27;1.70;;;0.20;99.90;;;;;;5108167;28;20208;-62
2022/01/20 05:42:03;;;;;;;13.27;1.77;;;0.20;99.90;;;;;;5091471;28;20522;-62
2022/01/20 05:44:28;;;;;;;7.93;1.80;;;0.20;99.90;;;;;;5101791;28;20019;-62
2022/01/20 05:46:54;;;;;;;8.48;1.73;;;0.10;99.90;;;;;;5105971;28;20530;-62
2022/01/20 05:49:22;;;;;;;11.57;1.92;;;0.10;99.90;;;;;;5107758;28;20110;-62
2022/01/20 05:51:52;;;;;;;12.93;2.05;;;0.00;99.90;;;;;;5091497;28;20486;-62
2022/01/20 05:54:18;;;;;;;14.57;1.98;;;-0.10;99.90;;;;;;5107542;28;20403;-60
2022/01/20 05:56:44;;;;;;;10.30;1.73;;;-0.20;99.90;;;;;;5106089;28;20114;-60
2022/01/20 05:59:11;;;;;;;11.05;2.40;;;-0.20;99.90;;;;;;5104135;28;20030;-60
2022/01/20 06:01:37;;;;;;;22.08;2.65;;;-0.20;99.90;;;;;;5107919;28;20134;-60
2022/01/20 06:04:05;;;;;;;15.85;2.95;;;-0.20;99.90;;;;;;5092225;28;20032;-61
2022/01/20 06:06:31;;;;;;;10.52;1.63;;;-0.10;99.90;;;;;;5107774;28;20058;-60
2022/01/20 06:08:57;;;;;;;10.57;1.60;;;0.10;99.90;;;;;;5106299;28;20403;-60
2022/01/20 06:11:23;;;;;;;6.82;1.30;;;0.10;99.90;;;;;;5108651;28;20028;-60
2022/01/20 06:13:48;;;;;;;10.70;1.65;;;0.20;99.90;;;;;;5095014;28;20101;-60
2022/01/20 06:16:14;;;;;;;14.25;1.95;;;0.30;99.90;;;;;;5107876;28;20033;-60
2022/01/20 06:18:40;;;;;;;14.65;1.70;;;0.30;99.90;;;;;;5106632;28;20044;-60
2022/01/20 06:21:05;;;;;;;9.57;1.83;;;0.40;99.90;;;;;;5109054;28;20032;-60
2022/01/20 06:23:31;;;;;;;7.00;1.17;;;0.40;99.90;;;;;;5110391;28;20052;-60
2022/01/20 06:25:57;;;;;;;10.77;1.30;;;0.30;99.90;;;;;;5112596;28;20020;-60
2022/01/20 06:28:22;;;;;;;7.18;1.13;;;0.30;99.90;;;;;;5092137;28;20027;-60
2022/01/20 06:30:48;;;;;;;11.52;2.17;;;0.20;99.90;;;;;;5112496;28;20028;-60
2022/01/20 06:33:14;;;;;;;7.75;1.27;;;0.00;99.90;;;;;;5109575;28;20148;-60
2022/01/20 06:35:39;;;;;;;4.68;0.88;;;-0.10;99.90;;;;;;5112355;28;20454;-60
2022/01/20 06:38:05;;;;;;;4.95;1.08;;;-0.20;99.90;;;;;;5110549;28;20023;-60
2022/01/20 06:40:31;;;;;;;7.97;1.15;;;-0.40;99.90;;;;;;5112371;28;20023;-60
2022/01/20 06:42:57;;;;;;;12.02;2.13;;;-0.50;99.90;;;;;;5103483;28;20034;-60
2022/01/20 06:45:23;;;;;;;14.18;3.00;;;-0.70;99.90;;;;;;5112624;28;20398;-60
2022/01/20 06:47:49;;;;;;;9.77;1.23;;;-0.70;99.90;;;;;;5110200;28;20526;-60
2022/01/20 06:50:15;;;;;;;11.13;1.83;;;-0.70;99.90;;;;;;5112228;28;20524;-60
2022/01/20 06:52:41;;;;;;;7.47;1.42;;;-0.70;99.90;;;;;;5110179;28;20035;-59
2022/01/20 06:55:10;;;;;;;14.48;1.75;;;-0.60;99.90;;;;;;5112361;28;20039;-60
2022/01/20 06:57:36;;;;;;;5.32;1.30;;;-0.50;99.90;;;;;;5110125;28;20499;-60
2022/01/20 07:00:11;;;;;;;9.73;1.05;;;-0.40;99.90;;;;;;5112402;28;20494;-60
2022/01/20 07:02:37;;;;;;;9.80;1.60;;;-0.30;99.90;;;;;;5091458;28;20384;-59
2022/01/20 07:05:03;;;;;;;27.80;2.83;;;-0.30;99.90;;;;;;5112151;28;20039;-60
2022/01/20 07:07:30;;;;;;;5.97;1.17;;;-0.50;99.90;;;;;;5109629;28;20043;-60
2022/01/20 07:09:56;;;;;;;4.57;0.93;;;-0.60;99.90;;;;;;5112026;28;20030;-60
2022/01/20 07:12:22;;;;;;;7.88;1.25;;;-0.80;99.90;;;;;;5111795;28;20102;-60
2022/01/20 07:14:47;;;;;;;8.45;1.10;;;-1.00;99.90;;;;;;5109878;28;20032;-60
2022/01/20 07:17:13;;;;;;;5.10;1.48;;;-1.00;99.90;;;;;;5111644;28;20067;-60
2022/01/20 07:19:39;;;;;;;6.88;0.95;;;-1.10;99.90;;;;;;5109625;28;20052;-60
2022/01/20 07:22:04;;;;;;;7.00;0.85;;;-1.10;99.90;;;;;;5111643;28;20052;-60
2022/01/20 07:24:30;;;;;;;8.35;1.20;;;-1.10;99.90;;;;;;5092017;28;20031;-60
2022/01/20 07:26:57;;;;;;;8.98;1.10;;;-1.20;99.90;;;;;;5111108;28;20110;-60
2022/01/20 07:29:22;;;;;;;5.80;0.90;;;-1.20;99.90;;;;;;5109815;28;20027;-60
2022/01/20 07:31:48;;;;;;;6.47;1.25;;;-1.20;99.90;;;;;;5111313;28;20347;-60
2022/01/20 07:34:13;;;;;;;11.50;1.17;;;-1.20;99.90;;;;;;5092703;28;20055;-60
2022/01/20 07:36:39;;;;;;;1.98;0.93;;;-1.20;99.90;;;;;;5110824;28;20114;-60
2022/01/20 07:39:05;;;;;;;6.78;1.10;;;-1.20;99.90;;;;;;5109694;28;20454;-60
2022/01/20 07:41:31;;;;;;;1.50;0.70;;;-1.30;99.90;;;;;;5111304;28;20075;-60
2022/01/20 07:43:57;;;;;;;3.35;0.80;;;-1.40;99.90;;;;;;5092727;28;20506;-60
2022/01/20 07:46:22;;;;;;;10.10;1.10;;;-1.40;99.90;;;;;;5110573;28;20035;-60
2022/01/20 07:48:48;;;;;;;3.15;1.02;;;-1.50;99.90;;;;;;5109173;28;20020;-60
2022/01/20 07:51:15;;;;;;;4.53;0.88;;;-1.50;99.90;;;;;;5111204;28;20424;-60
2022/01/20 07:53:40;;;;;;;9.77;1.77;;;-1.40;99.90;;;;;;5109105;28;20051;-60
2022/01/20 07:56:06;;;;;;;4.30;0.85;;;-1.30;99.90;;;;;;5111320;28;20467;-60
2022/01/20 07:58:34;;;;;;;8.75;1.45;;;-1.20;99.90;;;;;;5108818;28;20058;-60
2022/01/20 08:00:59;;;;;;;10.50;1.90;;;-1.20;99.90;;;;;;5110734;28;20027;-60
2022/01/20 08:03:25;;;;;;;8.85;1.17;;;-1.10;99.90;;;;;;5108885;28;20028;-60
2022/01/20 08:05:51;;;;;;;15.27;1.50;;;-1.10;99.90;;;;;;5110596;28;20028;-60
2022/01/20 08:08:16;;;;;;;4.65;0.98;;;-1.00;99.90;;;;;;5108669;28;20020;-60
2022/01/20 08:10:42;;;;;;;5.95;0.88;;;-0.90;99.90;;;;;;5110848;28;20008;-60
2022/01/20 08:13:07;;;;;;;10.68;1.40;;;-0.90;99.90;;;;;;5108815;28;20019;-60
2022/01/20 08:15:33;;;;;;;10.07;1.45;;;-0.70;99.90;;;;;;5110535;28;20152;-60
2022/01/20 08:17:58;;;;;;;4.78;1.27;;;-0.60;99.90;;;;;;5108598;28;20031;-60
2022/01/20 08:20:24;;;;;;;4.93;0.88;;;-0.50;99.90;;;;;;5110540;28;20048;-60
2022/01/20 08:22:49;;;;;;;12.95;1.75;;;-0.40;99.90;;;;;;5108297;28;20449;-60
2022/01/20 08:25:18;;;;;;;6.30;1.52;;;-0.30;99.90;;;;;;5110768;28;20020;-60
2022/01/20 08:27:46;;;;;;;4.97;1.17;;;0.00;99.90;;;;;;5108730;28;20922;-60
2022/01/20 08:30:17;;;;;;;1.75;0.90;;;0.50;99.90;;;;;;5110302;28;20022;-60
2022/01/20 08:32:44;;;;;;;3.13;0.77;;;1.00;99.90;;;;;;5090587;28;20454;-60
2022/01/20 08:35:10;;;;;;;8.35;1.50;;;1.70;99.90;;;;;;5110242;28;20035;-60
2022/01/20 08:37:40;;;;;;;7.60;1.17;;;2.40;99.90;;;;;;5108245;28;20084;-60
2022/01/20 08:40:09;;;;;;;7.25;1.48;;;3.10;99.90;;;;;;5110412;28;20064;-60
2022/01/20 08:42:35;;;;;;;6.93;1.90;;;3.40;99.90;;;;;;5099709;28;20506;-60
2022/01/20 08:45:01;;;;;;;7.03;1.80;;;3.80;99.90;;;;;;5089476;28;20031;-62
2022/01/20 08:47:26;;;;;;;7.57;2.25;;;3.90;99.90;;;;;;5107374;28;20043;-60
2022/01/20 08:49:52;;;;;;;8.93;1.80;;;3.80;99.90;;;;;;5109896;28;20027;-61
2022/01/20 08:52:20;;;;;;;7.13;2.00;;;3.30;99.90;;;;;;5109924;28;20071;-60
2022/01/20 08:54:47;;;;;;;11.18;2.05;;;3.50;99.90;;;;;;5088315;28;20599;-60
2022/01/20 08:57:13;;;;;;;13.73;1.80;;;3.40;99.90;;;;;;5109109;28;20027;-61
2022/01/20 08:59:41;;;;;;;6.85;1.50;;;3.80;99.90;;;;;;5107994;28;20024;-60
2022/01/20 09:02:10;;;;;;;15.55;2.80;;;3.40;99.90;;;;;;5109859;28;20509;-60
2022/01/20 09:04:36;;;;;;;11.30;2.03;;;2.90;99.90;;;;;;5089317;28;20572;-60
2022/01/20 09:07:02;;;;;;;13.93;2.38;;;3.60;99.90;;;;;;5109132;28;20023;-62
2022/01/20 09:09:27;;;;;;;8.52;2.10;;;4.50;99.90;;;;;;5107747;28;20019;-62
2022/01/20 09:12:15;;;;;;;12.45;1.63;;;5.10;99.90;;;;;;5109358;28;20028;-62
2022/01/20 09:17:27;;;;;;;8.88;2.10;;;6.00;99.90;;;;;;5087682;28;20403;-62
2022/01/20 09:19:55;;;;;;;10.98;2.17;;;6.60;99.90;;;;;;5109119;28;20050;-62
2022/01/20 09:22:21;;;;;;;6.63;1.88;;;6.80;99.90;;;;;;5109358;28;20043;-62
2022/01/20 09:24:47;;;;;;;10.02;3.20;;;7.00;94.20;;;;;;5107423;28;20051;-62
2022/01/20 09:27:14;;;;;;;12.98;2.85;;;7.20;91.70;;;;;;5109201;28;20035;-63
2022/01/20 09:29:40;;;;;;;8.88;2.25;;;7.40;93.00;;;;;;5088596;28;20035;-61
2022/01/20 09:32:08;;;;;;;9.38;2.05;;;6.30;90.80;;;;;;5108785;28;20093;-62
2022/01/20 09:34:33;;;;;;;16.92;2.38;;;5.00;99.90;;;;;;5107253;28;20481;-62
2022/01/20 09:37:40;;;;;;;14.98;3.80;;;4.10;99.90;;;;;;5082987;28;20039;-62
2022/01/20 09:41:04;;;;;;;12.65;2.65;;;3.40;99.90;;;;;;5098598;28;20119;-60
2022/01/20 09:44:30;;;;;;;12.77;2.72;;;2.90;99.90;;;;;;5100774;28;20042;-60
2022/01/20 09:47:58;;;;;;;14.90;3.17;;;2.70;99.90;;;;;;5101867;28;20050;-62
2022/01/20 09:51:23;;;;;;;16.33;4.32;;;2.60;99.90;;;;;;5099963;28;20088;-62
2022/01/20 09:54:49;;;;;;;15.77;2.50;;;2.50;99.90;;;;;;5103718;28;20059;-62
2022/01/20 09:58:14;;;;;;;18.20;3.08;;;2.60;99.90;;;;;;5086722;28;20036;-62
2022/01/20 10:01:56;;;;;;;10.48;2.22;;;2.90;99.90;;;;;;5102172;28;20637;-62
2022/01/20 10:05:20;;;;;;;11.50;2.30;;;3.20;99.90;;;;;;5103693;28;20040;-62
2022/01/20 10:08:51;;;;;;;11.50;2.25;;;3.40;99.90;;;;;;5087535;28;20400;-63
2022/01/20 10:12:17;;;;;;;7.70;1.83;;;3.60;99.90;;;;;;5102325;28;20106;-62
2022/01/20 10:15:42;;;;;;;14.18;2.40;;;3.90;99.90;;;;;;5099786;28;20035;-61
2022/01/20 10:19:10;;;;;;;8.23;2.75;;;3.90;99.90;;;;;;5101438;28;20427;-62
2022/01/20 10:22:36;;;;;;;13.43;2.60;;;3.80;99.90;;;;;;5087301;28;20047;-61
2022/01/20 10:26:01;;;;;;;14.27;2.80;;;3.60;99.90;;;;;;5099582;28;20032;-61
2022/01/20 10:29:32;;;;;;;13.85;2.75;;;3.60;99.90;;;;;;5101697;28;20477;-61
2022/01/20 10:32:58;;;;;;;11.45;2.38;;;3.60;99.90;;;;;;5104559;28;20028;-61
2022/01/20 10:36:29;;;;;;;9.15;2.08;;;3.60;99.10;;;;;;5101683;28;20127;-61
2022/01/20 10:39:59;;;;;;;8.90;2.50;;;3.70;99.90;;;;;;5100575;28;20446;-61
2022/01/20 10:43:03;;;;;;;;;;;3.50;99.70;;;;;;5088453;28;20127;-61
2022/01/20 10:46:28;;;;;;;17.88;2.20;;;3.30;97.90;;;;;;5100032;28;19908;-61
2022/01/20 10:49:54;;;;;;;10.43;2.38;;;3.10;99.30;;;;;;5099615;28;20405;-60
2022/01/20 10:53:19;;;;;;;15.38;2.38;;;3.00;99.90;;;;;;5107310;28;20044;-60
2022/01/20 10:56:45;;;;;;;10.80;2.17;;;3.00;99.90;;;;;;5102248;28;20039;-61
2022/01/20 11:00:10;;;;;;;14.13;2.28;;;3.10;99.90;;;;;;5104335;28;20232;-61
2022/01/20 11:03:35;;;;;;;7.95;1.55;;;3.10;99.90;;;;;;5086768;28;20097;-60
2022/01/20 11:07:03;;;;;;;9.05;2.67;;;3.00;99.90;;;;;;5104618;28;20035;-60
2022/01/20 11:10:26;;;;;;;10.05;2.55;;;2.90;99.90;;;;;;5102539;28;20457;-61
2022/01/20 11:13:51;;;;;;;13.30;1.98;;;2.80;99.90;;;;;;5104982;28;20039;-61
2022/01/20 11:17:17;;;;;;;12.27;3.05;;;2.80;99.90;;;;;;5108571;28;20087;-60
2022/01/20 11:20:45;;;;;;;7.97;2.47;;;2.80;99.90;;;;;;5103482;28;20411;-62
2022/01/20 11:24:17;;;;;;;9.93;2.10;;;2.80;99.90;;;;;;5104748;28;20047;-61
2022/01/20 11:27:42;;;;;;;9.32;1.83;;;2.90;99.90;;;;;;5108643;28;20448;-62
2022/01/20 11:31:19;;;;;;;16.15;3.00;;;3.00;99.90;;;;;;5102997;28;20412;-62
2022/01/20 11:34:45;;;;;;;11.13;2.10;;;2.90;99.00;;;;;;5102747;28;20493;-61
2022/01/20 11:38:16;;;;;;;8.75;2.53;;;2.90;99.80;;;;;;5110180;28;20042;-61
2022/01/20 11:41:43;;;;;;;8.23;2.08;;;3.10;99.90;;;;;;5104895;28;20032;-61
2022/01/20 11:45:07;;;;;;;17.25;2.50;;;3.50;98.80;;;;;;5096729;28;20491;-61
2022/01/20 11:48:12;;;;;;;13.30;3.15;;;3.60;98.90;;;;;;5110078;28;20036;-61
2022/01/20 11:51:41;;;;;;;6.78;2.28;;;3.50;99.90;;;;;;5102912;28;20035;-60
2022/01/20 11:54:49;;;;;;;;;;;3.20;97.90;;;;;;5102960;28;20114;-61
2022/01/20 11:58:14;;;;;;;6.85;1.75;;;3.10;96.50;;;;;;5109802;28;19907;-60
2022/01/20 12:01:20;;;;;;;12.63;1.95;;;2.90;98.40;;;;;;5106300;28;20032;-61
2022/01/20 12:04:52;;;;;;;15.25;2.10;;;2.80;99.90;;;;;;5102020;28;20163;-61
2022/01/20 12:08:19;;;;;;;13.23;2.13;;;2.80;99.90;;;;;;5089656;28;20071;-61
2022/01/20 12:11:45;;;;;;;12.52;2.00;;;2.70;99.90;;;;;;5104936;28;20499;-62
2022/01/20 12:15:10;;;;;;;14.88;2.15;;;2.60;99.90;;;;;;5102076;28;20027;-61
2022/01/20 12:18:35;;;;;;;8.35;1.95;;;2.60;99.90;;;;;;5089176;28;20028;-60
2022/01/20 12:22:01;;;;;;;13.65;2.35;;;2.60;99.90;;;;;;5106565;28;20117;-61
2022/01/20 12:25:35;;;;;;;12.85;1.90;;;2.50;99.90;;;;;;5103955;28;20035;-61
2022/01/20 12:29:01;;;;;;;12.30;1.80;;;2.50;99.90;;;;;;5103324;28;20031;-61
2022/01/20 12:32:32;;;;;;;10.48;2.30;;;2.40;99.90;;;;;;5106467;28;20126;-61
2022/01/20 12:36:02;;;;;;;12.38;2.47;;;2.30;99.90;;;;;;5105608;28;20111;-61
2022/01/20 12:39:23;;;;;;;22.85;5.15;;;2.30;99.90;;;;;;5101969;28;20042;-61
2022/01/20 12:42:54;;;;;;;13.07;2.83;;;2.30;99.90;;;;;;5099786;28;20036;-60
2022/01/20 12:46:19;;;;;;;17.90;3.75;;;2.60;99.90;;;;;;5107232;28;20027;-61
2022/01/20 12:49:48;;;;;;;21.00;3.08;;;2.80;99.90;;;;;;5101129;28;20042;-60
2022/01/20 12:52:53;;;;;;;;;;;3.00;97.20;;;;;;5088951;28;20048;-61
2022/01/20 12:56:18;;;;;;;9.93;2.67;;;3.10;98.60;;;;;;5100144;28;19908;-61
2022/01/20 12:59:44;;;;;;;7.32;1.85;;;3.10;96.90;;;;;;5101069;28;20518;-60
2022/01/20 13:03:09;;;;;;;8.98;2.70;;;3.20;97.80;;;;;;5108577;28;20036;-60
2022/01/20 13:06:34;;;;;;;12.45;2.65;;;3.40;95.40;;;;;;5102068;28;20039;-61
2022/01/20 13:09:41;;;;;;;9.68;3.00;;;3.50;94.50;;;;;;5101069;28;20027;-61
2022/01/20 13:13:14;;;;;;;13.00;2.90;;;3.70;96.00;;;;;;5108418;28;20027;-61
2022/01/20 13:16:52;;;;;;;10.32;2.00;;;3.80;90.60;;;;;;5102922;28;20036;-61
2022/01/20 13:20:19;;;;;;;9.80;2.20;;;3.90;91.50;;;;;;5102161;28;20150;-60
2022/01/20 13:23:55;;;;;;;9.85;1.95;;;3.90;88.00;;;;;;5088039;28;20044;-61
2022/01/20 13:27:24;;;;;;;11.52;1.60;;;3.70;86.00;;;;;;5102687;28;20043;-61
2022/01/20 13:30:29;;;;;;;7.53;2.03;;;3.40;92.40;;;;;;5100229;28;20351;-62
2022/01/20 13:34:01;;;;;;;7.95;2.00;;;3.10;92.70;;;;;;5103898;28;20051;-64
2022/01/20 13:37:26;;;;;;;9.48;2.03;;;2.80;94.30;;;;;;5105205;28;20134;-63
2022/01/20 13:40:51;;;;;;;6.82;2.40;;;2.60;91.10;;;;;;5100729;28;20527;-62
2022/01/20 13:47:53;;;;;;;5.32;1.33;;;2.10;93.80;;;;;;5087751;28;20043;-64
2022/01/20 13:51:18;;;;;;;7.07;1.42;;;1.90;94.50;;;;;;5099403;28;20035;-62
2022/01/20 13:54:04;;;;;;;6.82;0.95;;;1.80;98.40;;;;;;5094475;28;20579;-63
2022/01/20 13:56:30;;;;;;;6.93;1.35;;;1.70;99.90;;;;;;5108072;28;20042;-63
2022/01/20 13:59:22;;;;;;;8.10;2.15;;;1.70;99.90;;;;;;5106171;28;20035;-62
2022/01/20 14:01:47;;;;;;;7.60;1.50;;;1.70;99.90;;;;;;5084792;28;20052;-62
2022/01/20 14:04:14;;;;;;;8.25;2.05;;;1.70;99.90;;;;;;5105546;28;20481;-62
2022/01/20 14:06:39;;;;;;;7.65;1.65;;;1.80;99.90;;;;;;5107743;28;20047;-60
2022/01/20 14:09:05;;;;;;;9.50;2.85;;;1.90;99.90;;;;;;5106290;28;20059;-62
2022/01/20 14:11:30;;;;;;;6.18;1.65;;;2.00;98.00;;;;;;5108005;28;20640;-62
2022/01/20 14:13:56;;;;;;;9.43;2.25;;;2.10;99.20;;;;;;5106136;28;20401;-63
2022/01/20 14:16:22;;;;;;;4.80;1.40;;;2.20;99.00;;;;;;5090897;28;20085;-61
2022/01/20 14:18:56;;;;;;;6.80;1.50;;;2.30;99.10;;;;;;5106133;28;20506;-62
2022/01/20 14:21:21;;;;;;;9.95;1.80;;;2.30;98.70;;;;;;5106187;28;20039;-63
2022/01/20 14:24:27;;;;;;;7.47;1.50;;;2.30;99.90;;;;;;5108116;28;20100;-63
2022/01/20 14:27:52;;;;;;;7.97;1.58;;;2.20;99.00;;;;;;5101137;28;20127;-61
2022/01/20 14:31:18;;;;;;;6.72;1.40;;;2.10;99.90;;;;;;5100178;28;20027;-61
2022/01/20 14:34:43;;;;;;;6.32;1.10;;;2.00;99.90;;;;;;5102355;28;20058;-62
2022/01/20 14:38:08;;;;;;;12.13;1.67;;;1.90;99.90;;;;;;5104668;28;20089;-63
2022/01/20 14:41:34;;;;;;;6.25;1.60;;;1.70;99.90;;;;;;5095336;28;20387;-62
2022/01/20 14:44:59;;;;;;;10.35;1.45;;;1.60;99.30;;;;;;5084596;28;20036;-63
2022/01/20 14:48:24;;;;;;;13.38;1.60;;;1.60;99.10;;;;;;5108815;28;20483;-61
2022/01/20 14:51:50;;;;;;;6.03;1.45;;;1.60;99.70;;;;;;5107916;28;20028;-62
2022/01/20 14:55:15;;;;;;;11.48;2.00;;;1.70;99.90;;;;;;5109898;28;20046;-61
2022/01/20 14:58:40;;;;;;;5.82;1.17;;;1.70;99.90;;;;;;5106037;28;20521;-61
2022/01/20 15:02:06;;;;;;;8.32;1.60;;;1.60;99.90;;;;;;5103878;28;20058;-61
2022/01/20 15:05:32;;;;;;;10.82;1.65;;;1.50;99.90;;;;;;5103758;28;20495;-60
2022/01/20 15:08:17;;;;;;;4.70;1.35;;;1.30;99.90;;;;;;5090849;28;20101;-65
2022/01/20 15:10:42;;;;;;;4.18;1.15;;;1.00;99.90;;;;;;5108734;28;20040;-63
2022/01/20 15:13:08;;;;;;;4.30;1.25;;;0.80;99.90;;;;;;5111660;28;20036;-67
2022/01/20 15:15:34;;;;;;;6.68;1.05;;;0.70;99.90;;;;;;5109272;28;20031;-65
2022/01/20 15:17:59;;;;;;;1.67;0.60;;;0.60;99.90;;;;;;5111390;28;20354;-66
2022/01/20 15:20:25;;;;;;;7.18;1.25;;;0.50;99.90;;;;;;5108858;28;20044;-67
2022/01/20 15:23:30;;;;;;;2.95;0.80;;;0.50;99.90;;;;;;5111094;28;20096;-64
2022/01/20 15:26:56;;;;;;;8.13;1.50;;;0.50;99.90;;;;;;5106097;28;20107;-65
2022/01/20 15:30:21;;;;;;;7.20;1.83;;;0.60;99.90;;;;;;5108811;28;20040;-66
2022/01/20 15:33:46;;;;;;;7.30;1.35;;;0.70;99.90;;;;;;5110273;28;20036;-65
2022/01/20 15:37:12;;;;;;;11.02;2.13;;;0.90;99.90;;;;;;5103371;28;20701;-64
2022/01/20 15:40:37;;;;;;;10.90;1.38;;;1.10;99.90;;;;;;5102816;28;20040;-66
2022/01/20 15:44:02;;;;;;;4.95;1.00;;;0.60;99.90;;;;;;5103287;28;20082;-65
2022/01/20 15:47:28;;;;;;;6.95;1.05;;;0.20;99.90;;;;;;5105943;28;20066;-65
2022/01/20 15:50:53;;;;;;;3.20;0.70;;;-0.10;99.90;;;;;;5105684;28;20031;-66
2022/01/20 15:54:18;;;;;;;1.05;0.52;;;-0.20;99.90;;;;;;5089673;28;20039;-64
2022/01/20 15:57:44;;;;;;;3.25;0.35;;;-0.30;99.90;;;;;;5107293;28;20055;-65
2022/01/20 16:01:09;;;;;;;6.32;0.70;;;-0.50;99.90;;;;;;5107060;28;20031;-65